Ecokeeper — SVTY — position and weather

sailwx.info

Track history (hours):
 
Tides and Currents Weather Stations Pressure Air Temp Water Temp Dewpoint Dewpoint Depression Visibility Wind Speed Wind Dir Waves Ship Positions

Ecokeeper

Last reported at 2016-Apr-28 13:18 UTC. Time now 2016-May-03 01:07 UTC.
Position N 37°57' E 023°34'.

Length 90 m; draft 4.8 m.

Type: Tanker. MMSI: 240689000.

Date/timePositionNaut miles runAvg speedWind from/ knotsBaromVisibWave heightAir tempDewpointWater temp
2016-Apr-28 13:18N 37°57' E 023°34'3 4.5
2016-Apr-28 12:33N 37°54' E 023°34'2 1.6
2016-Apr-28 11:28N 37°52' E 023°33'0 0.1
2016-Apr-28 10:31N 37°52' E 023°33'0 0.1
2016-Apr-28 09:31N 37°52' E 023°33'5 4.7
2016-Apr-28 08:32N 37°57' E 023°34'0 0.0
2016-Apr-27 08:31N 37°57' E 023°34'2 2.2
2016-Apr-27 07:31N 37°57' E 023°37'0 0.0
2016-Apr-27 06:31N 37°57' E 023°37'0 0.0
2016-Apr-27 05:31N 37°57' E 023°37'1 1.0
2016-Apr-27 04:33N 37°57' E 023°36'1 1.4
2016-Apr-27 03:33N 37°57' E 023°34'0 0.0
2016-Apr-25 09:33N 37°57' E 023°34'6 5.7
2016-Apr-25 08:31N 37°52' E 023°31'0 0.3
2016-Apr-25 07:31N 37°51' E 023°32'0 0.1
2016-Apr-25 06:31N 37°51' E 023°32'4 4.0
2016-Apr-25 05:33N 37°55' E 023°34'1 0.1
2016-Apr-24 12:33N 37°56' E 023°34'4 4.0
2016-Apr-24 11:33N 37°52' E 023°32'0 0.0
2016-Apr-24 10:33N 37°52' E 023°32'0 0.0
2016-Apr-24 09:30N 37°52' E 023°32'0 0.1
2016-Apr-24 08:33N 37°52' E 023°32'0 0.0
2016-Apr-24 07:33N 37°52' E 023°32'0 0.1
2016-Apr-24 06:33N 37°52' E 023°32'4 3.7
2016-Apr-24 05:34N 37°56' E 023°34'1 0.1
2016-Apr-23 18:17N 37°57' E 023°34'3 4.2
2016-Apr-23 17:33N 37°54' E 023°33'1 0.7
2016-Apr-23 16:33N 37°53' E 023°33'4 0.2
2016-Apr-22 18:07N 37°57' E 023°34'1 2.2
2016-Apr-22 17:34N 37°56' E 023°35'4 4.0
2016-Apr-22 16:33N 37°52' E 023°32'0 0.0
2016-Apr-22 15:33N 37°52' E 023°32'0 0.1
2016-Apr-22 14:33N 37°52' E 023°32'1 1.2
2016-Apr-22 13:33N 37°53' E 023°33'0 0.0
2016-Apr-22 12:33N 37°53' E 023°33'0 0.0
2016-Apr-22 11:33N 37°53' E 023°33'0 0.0
2016-Apr-22 10:33N 37°53' E 023°33'0 0.0
2016-Apr-22 09:33N 37°53' E 023°33'0 0.0
2016-Apr-22 08:33N 37°53' E 023°33'0 0.2
2016-Apr-22 07:33N 37°53' E 023°33'0 0.1
2016-Apr-22 06:33N 37°53' E 023°33'1 1.5
2016-Apr-22 05:34N 37°54' E 023°34'3 0.2
2016-Apr-21 16:11N 37°57' E 023°34'2 2.5
2016-Apr-21 15:33N 37°55' E 023°34'5 4.9
2016-Apr-21 14:32N 37°51' E 023°31'0 0.0
2016-Apr-21 13:32N 37°51' E 023°31'0 0.0
2016-Apr-21 12:32N 37°51' E 023°31'0 0.0
2016-Apr-21 11:32N 37°51' E 023°31'0 0.0
2016-Apr-21 10:32N 37°51' E 023°30'0 0.0
2016-Apr-21 09:29N 37°51' E 023°30'0 0.0
2016-Apr-21 08:32N 37°51' E 023°31'0 0.0
2016-Apr-21 07:32N 37°51' E 023°30'0 0.0
2016-Apr-21 06:32N 37°51' E 023°31'5 4.8
2016-Apr-21 05:33N 37°55' E 023°34'2 0.1
2016-Apr-19 18:06N 37°57' E 023°34'1 2.3
2016-Apr-19 17:34N 37°57' E 023°35'1 1.2
2016-Apr-19 16:33N 37°57' E 023°37'0 0.0
2016-Apr-19 15:33N 37°57' E 023°37'0 0.0
2016-Apr-19 14:30N 37°57' E 023°37'0 0.0
2016-Apr-19 13:33N 37°57' E 023°37'0 0.0
2016-Apr-19 12:33N 37°57' E 023°37'0 0.0
2016-Apr-19 11:27N 37°57' E 023°37'0 0.0
2016-Apr-19 10:24N 37°57' E 023°37'0 0.0
2016-Apr-19 09:30N 37°57' E 023°37'0 0.0
2016-Apr-19 08:33N 37°57' E 023°37'0 0.0
2016-Apr-19 07:33N 37°57' E 023°37'0 0.0
2016-Apr-19 06:30N 37°57' E 023°37'0 0.4
2016-Apr-19 05:33N 37°57' E 023°36'  
Track history (hours):
 
Tides and Currents Weather Stations Pressure Air Temp Water Temp Dewpoint Dewpoint Depression Visibility Wind Speed Wind Dir Waves Ship Positions

Ecokeeper

Last reported at 2016-Apr-28 13:18 UTC. Time now 2016-May-03 01:07 UTC.
Position N 37°57' E 023°34'.

Length 90 m; draft 4.8 m.

Type: Tanker. MMSI: 240689000.

Date/timePositionNaut miles runAvg speedWind from/ knotsBaromVisibWave heightAir tempDewpointWater temp
2016-Apr-28 13:18N 37°57' E 023°34'3 4.5
2016-Apr-28 12:33N 37°54' E 023°34'2 1.6
2016-Apr-28 11:28N 37°52' E 023°33'0 0.1
2016-Apr-28 10:31N 37°52' E 023°33'0 0.1
2016-Apr-28 09:31N 37°52' E 023°33'5 4.7
2016-Apr-28 08:32N 37°57' E 023°34'0 0.0
2016-Apr-27 08:31N 37°57' E 023°34'2 2.2
2016-Apr-27 07:31N 37°57' E 023°37'0 0.0
2016-Apr-27 06:31N 37°57' E 023°37'0 0.0
2016-Apr-27 05:31N 37°57' E 023°37'1 1.0
2016-Apr-27 04:33N 37°57' E 023°36'1 1.4
2016-Apr-27 03:33N 37°57' E 023°34'0 0.0
2016-Apr-25 09:33N 37°57' E 023°34'6 5.7
2016-Apr-25 08:31N 37°52' E 023°31'0 0.3
2016-Apr-25 07:31N 37°51' E 023°32'0 0.1
2016-Apr-25 06:31N 37°51' E 023°32'4 4.0
2016-Apr-25 05:33N 37°55' E 023°34'1 0.1
2016-Apr-24 12:33N 37°56' E 023°34'4 4.0
2016-Apr-24 11:33N 37°52' E 023°32'0 0.0
2016-Apr-24 10:33N 37°52' E 023°32'0 0.0
2016-Apr-24 09:30N 37°52' E 023°32'0 0.1
2016-Apr-24 08:33N 37°52' E 023°32'0 0.0
2016-Apr-24 07:33N 37°52' E 023°32'0 0.1
2016-Apr-24 06:33N 37°52' E 023°32'4 3.7
2016-Apr-24 05:34N 37°56' E 023°34'1 0.1
2016-Apr-23 18:17N 37°57' E 023°34'3 4.2
2016-Apr-23 17:33N 37°54' E 023°33'1 0.7
2016-Apr-23 16:33N 37°53' E 023°33'4 0.2
2016-Apr-22 18:07N 37°57' E 023°34'1 2.2
2016-Apr-22 17:34N 37°56' E 023°35'4 4.0
2016-Apr-22 16:33N 37°52' E 023°32'0 0.0
2016-Apr-22 15:33N 37°52' E 023°32'0 0.1
2016-Apr-22 14:33N 37°52' E 023°32'1 1.2
2016-Apr-22 13:33N 37°53' E 023°33'0 0.0
2016-Apr-22 12:33N 37°53' E 023°33'0 0.0
2016-Apr-22 11:33N 37°53' E 023°33'0 0.0
2016-Apr-22 10:33N 37°53' E 023°33'0 0.0
2016-Apr-22 09:33N 37°53' E 023°33'0 0.0
2016-Apr-22 08:33N 37°53' E 023°33'0 0.2
2016-Apr-22 07:33N 37°53' E 023°33'0 0.1
2016-Apr-22 06:33N 37°53' E 023°33'1 1.5
2016-Apr-22 05:34N 37°54' E 023°34'3 0.2
2016-Apr-21 16:11N 37°57' E 023°34'2 2.5
2016-Apr-21 15:33N 37°55' E 023°34'5 4.9
2016-Apr-21 14:32N 37°51' E 023°31'0 0.0
2016-Apr-21 13:32N 37°51' E 023°31'0 0.0
2016-Apr-21 12:32N 37°51' E 023°31'0 0.0
2016-Apr-21 11:32N 37°51' E 023°31'0 0.0
2016-Apr-21 10:32N 37°51' E 023°30'0 0.0
2016-Apr-21 09:29N 37°51' E 023°30'0 0.0
2016-Apr-21 08:32N 37°51' E 023°31'0 0.0
2016-Apr-21 07:32N 37°51' E 023°30'0 0.0
2016-Apr-21 06:32N 37°51' E 023°31'5 4.8
2016-Apr-21 05:33N 37°55' E 023°34'2 0.1
2016-Apr-19 18:06N 37°57' E 023°34'1 2.3
2016-Apr-19 17:34N 37°57' E 023°35'1 1.2
2016-Apr-19 16:33N 37°57' E 023°37'0 0.0
2016-Apr-19 15:33N 37°57' E 023°37'0 0.0
2016-Apr-19 14:30N 37°57' E 023°37'0 0.0
2016-Apr-19 13:33N 37°57' E 023°37'0 0.0
2016-Apr-19 12:33N 37°57' E 023°37'0 0.0
2016-Apr-19 11:27N 37°57' E 023°37'0 0.0
2016-Apr-19 10:24N 37°57' E 023°37'0 0.0
2016-Apr-19 09:30N 37°57' E 023°37'0 0.0
2016-Apr-19 08:33N 37°57' E 023°37'0 0.0
2016-Apr-19 07:33N 37°57' E 023°37'0 0.0
2016-Apr-19 06:30N 37°57' E 023°37'0 0.4
2016-Apr-19 05:33N 37°57' E 023°36'  

Dump ship's entire track history